Observation data for Roaring Springs on 09/10/2017      Previous  Date  Next       Current Mesonet Observations  Soil Data  Daily Summary Page  Observations in Plain Language
KRRS 100500Z 16005KT 19/10 A3021 RMK A01 T01880102  RH  058%=      5-min Rain = 0
KRRS 100505Z 16005KT 19/10 A3021 RMK A01 T01870102  RH  059%=      5-min Rain = 0
KRRS 100510Z 15005KT 19/10 A3021 RMK A01 T01850102  RH  059%=      5-min Rain = 0
KRRS 100515Z 16005KT 18/10 A3021 RMK A01 T01840103  RH  060%=      5-min Rain = 0
KRRS 100520Z 15005KT 18/10 A3021 RMK A01 T01840103  RH  060%=      5-min Rain = 0
KRRS 100525Z 15006KT 18/10 A3021 RMK A01 T01840104  RH  061%=      5-min Rain = 0
KRRS 100530Z 14006KT 18/11 A3021 RMK A01 T01840105  RH  061%=      5-min Rain = 0
KRRS 100535Z 14006KT 18/11 A3021 RMK A01 T01840106  RH  061%=      5-min Rain = 0
KRRS 100540Z 14006KT 18/11 A3021 RMK A01 T01820106  RH  062%=      5-min Rain = 0
KRRS 100545Z 15005KT 18/11 A3021 RMK A01 T01810106  RH  063%=      5-min Rain = 0
KRRS 100550Z 15006KT 18/11 A3021 RMK A01 T01800106  RH  063%=      5-min Rain = 0
KRRS 100555Z 16006KT 18/11 A3021 RMK A01 T01800106  RH  063%=      5-min Rain = 0
KRRS 100600Z 16006KT 18/11 A3021 RMK A01 T01790107  RH  064%=      5-min Rain = 0
KRRS 100605Z 17006KT 18/11 A3022 RMK A01 T01790107  RH  064%=      5-min Rain = 0
KRRS 100610Z 17007KT 18/11 A3022 RMK A01 T01770107  RH  065%=      5-min Rain = 0
KRRS 100615Z 17006KT 17/11 A3021 RMK A01 T01740107  RH  066%=      5-min Rain = 0
KRRS 100620Z 18006KT 17/11 A3021 RMK A01 T01690107  RH  068%=      5-min Rain = 0
KRRS 100625Z 18006KT 17/11 A3021 RMK A01 T01660107  RH  069%=      5-min Rain = 0
KRRS 100630Z 18005KT 17/11 A3021 RMK A01 T01650107  RH  069%=      5-min Rain = 0
KRRS 100635Z 17005KT 16/11 A3022 RMK A01 T01640107  RH  070%=      5-min Rain = 0
KRRS 100640Z 18005KT 16/11 A3022 RMK A01 T01610107  RH  071%=      5-min Rain = 0
KRRS 100645Z 19006KT 16/11 A3022 RMK A01 T01600106  RH  072%=      5-min Rain = 0
KRRS 100650Z 19006KT 16/11 A3022 RMK A01 T01580106  RH  072%=      5-min Rain = 0
KRRS 100655Z 19006KT 16/11 A3022 RMK A01 T01570106  RH  073%=      5-min Rain = 0
KRRS 100700Z 18006KT 16/11 A3022 RMK A01 T01570107  RH  073%=      5-min Rain = 0
KRRS 100705Z 18006KT 16/11 A3022 RMK A01 T01570108  RH  074%=      5-min Rain = 0
KRRS 100710Z 18007KT 16/11 A3022 RMK A01 T01570109  RH  074%=      5-min Rain = 0
KRRS 100715Z 19007KT 16/11 A3021 RMK A01 T01560109  RH  075%=      5-min Rain = 0
KRRS 100720Z 18006KT 16/11 A3022 RMK A01 T01560109  RH  075%=      5-min Rain = 0
KRRS 100725Z 18007KT 16/11 A3022 RMK A01 T01580110  RH  074%=      5-min Rain = 0
KRRS 100730Z 17006KT 16/11 A3021 RMK A01 T01570110  RH  075%=      5-min Rain = 0
KRRS 100735Z 17007KT 16/11 A3021 RMK A01 T01560110  RH  075%=      5-min Rain = 0
KRRS 100740Z 18007KT 16/11 A3022 RMK A01 T01560110  RH  076%=      5-min Rain = 0
KRRS 100745Z 18006KT 16/11 A3022 RMK A01 T01560110  RH  076%=      5-min Rain = 0
KRRS 100750Z 18006KT 15/11 A3022 RMK A01 T01540110  RH  076%=      5-min Rain = 0
KRRS 100755Z 18006KT 15/11 A3022 RMK A01 T01530109  RH  076%=      5-min Rain = 0
KRRS 100800Z 19005KT 15/11 A3022 RMK A01 T01500108  RH  077%=      5-min Rain = 0
KRRS 100805Z 19005KT 15/11 A3022 RMK A01 T01510108  RH  077%=      5-min Rain = 0
KRRS 100810Z 20005KT 15/11 A3022 RMK A01 T01500108  RH  078%=      5-min Rain = 0
KRRS 100815Z 20005KT 15/11 A3022 RMK A01 T01490108  RH  078%=      5-min Rain = 0
KRRS 100820Z 20005KT 15/11 A3022 RMK A01 T01500109  RH  078%=      5-min Rain = 0
KRRS 100825Z 19006KT 15/11 A3022 RMK A01 T01510110  RH  078%=      5-min Rain = 0
KRRS 100830Z 19007KT 16/11 A3022 RMK A01 T01560111  RH  076%=      5-min Rain = 0
KRRS 100835Z 19007KT 16/11 A3022 RMK A01 T01570112  RH  076%=      5-min Rain = 0
KRRS 100840Z 19007KT 16/11 A3022 RMK A01 T01580112  RH  075%=      5-min Rain = 0
KRRS 100845Z 19006KT 16/11 A3022 RMK A01 T01570112  RH  076%=      5-min Rain = 0
KRRS 100850Z 19006KT 16/11 A3022 RMK A01 T01550111  RH  076%=      5-min Rain = 0
KRRS 100855Z 19006KT 15/11 A3022 RMK A01 T01530110  RH  077%=      5-min Rain = 0
KRRS 100900Z 19006KT 15/11 A3022 RMK A01 T01510110  RH  078%=      5-min Rain = 0
KRRS 100905Z 19006KT 15/11 A3021 RMK A01 T01510110  RH  078%=      5-min Rain = 0
KRRS 100910Z 20006KT 15/11 A3021 RMK A01 T01460108  RH  079%=      5-min Rain = 0
KRRS 100915Z 20006KT 14/11 A3021 RMK A01 T01430108  RH  081%=      5-min Rain = 0
KRRS 100920Z 21006KT 14/11 A3021 RMK A01 T01410108  RH  081%=      5-min Rain = 0
KRRS 100925Z 21006KT 14/11 A3021 RMK A01 T01400108  RH  082%=      5-min Rain = 0
KRRS 100930Z 21006KT 14/11 A3022 RMK A01 T01400107  RH  082%=      5-min Rain = 0
KRRS 100935Z 21006KT 14/11 A3021 RMK A01 T01390107  RH  083%=      5-min Rain = 0
KRRS 100940Z 20006KT 14/11 A3021 RMK A01 T01380107  RH  083%=      5-min Rain = 0
KRRS 100945Z 20006KT 14/11 A3022 RMK A01 T01390108  RH  083%=      5-min Rain = 0
KRRS 100950Z 20006KT 14/11 A3022 RMK A01 T01390108  RH  083%=      5-min Rain = 0
KRRS 100955Z 20006KT 14/11 A3022 RMK A01 T01390108  RH  083%=      5-min Rain = 0
KRRS 101000Z 20006KT 14/11 A3022 RMK A01 T01390108  RH  083%=      5-min Rain = 0
KRRS 101005Z 20006KT 14/11 A3022 RMK A01 T01380108  RH  083%=      5-min Rain = 0
KRRS 101010Z 20007KT 14/11 A3022 RMK A01 T01370108  RH  084%=      5-min Rain = 0
KRRS 101015Z 20007KT 14/11 A3022 RMK A01 T01370108  RH  084%=      5-min Rain = 0
KRRS 101020Z 20006KT 14/11 A3022 RMK A01 T01350107  RH  085%=      5-min Rain = 0
KRRS 101025Z 21005KT 13/11 A3022 RMK A01 T01340108  RH  085%=      5-min Rain = 0
KRRS 101030Z 21005KT 14/11 A3022 RMK A01 T01370109  RH  085%=      5-min Rain = 0
KRRS 101035Z 21005KT 14/11 A3022 RMK A01 T01390109  RH  084%=      5-min Rain = 0
KRRS 101040Z 21005KT 14/11 A3023 RMK A01 T01400109  RH  083%=      5-min Rain = 0
KRRS 101045Z 21005KT 14/11 A3023 RMK A01 T01410109  RH  083%=      5-min Rain = 0
KRRS 101050Z 21005KT 14/11 A3023 RMK A01 T01390108  RH  083%=      5-min Rain = 0
KRRS 101055Z 21004KT 14/11 A3023 RMK A01 T01370108  RH  084%=      5-min Rain = 0
KRRS 101100Z 22004KT 14/11 A3023 RMK A01 T01390109  RH  083%=      5-min Rain = 0
KRRS 101105Z 22004KT 14/11 A3023 RMK A01 T01410109  RH  083%=      5-min Rain = 0
KRRS 101110Z 21004KT 14/11 A3024 RMK A01 T01410109  RH  082%=      5-min Rain = 0
KRRS 101115Z 21005KT 14/11 A3024 RMK A01 T01400109  RH  083%=      5-min Rain = 0
KRRS 101120Z 21005KT 14/11 A3024 RMK A01 T01390108  RH  083%=      5-min Rain = 0
KRRS 101125Z 21005KT 14/11 A3024 RMK A01 T01350107  RH  084%=      5-min Rain = 0
KRRS 101130Z 20005KT 14/11 A3023 RMK A01 T01350107  RH  085%=      5-min Rain = 0
KRRS 101135Z 21006KT 13/11 A3023 RMK A01 T01330106  RH  085%=      5-min Rain = 0
KRRS 101140Z 21005KT 13/11 A3023 RMK A01 T01310105  RH  086%=      5-min Rain = 0
KRRS 101145Z 22006KT 13/11 A3023 RMK A01 T01300105  RH  086%=      5-min Rain = 0
KRRS 101150Z 22006KT 13/11 A3024 RMK A01 T01300105  RH  086%=      5-min Rain = 0
KRRS 101155Z 23006KT 13/11 A3024 RMK A01 T01300105  RH  086%=      5-min Rain = 0
KRRS 101200Z 23006KT 13/11 A3024 RMK A01 T01300105  RH  086%=      5-min Rain = 0
KRRS 101205Z 23006KT 13/11 A3024 RMK A01 T01290105  RH  087%=      5-min Rain = 0
KRRS 101210Z 23006KT 13/11 A3025 RMK A01 T01280105  RH  087%=      5-min Rain = 0
KRRS 101215Z 23006KT 13/11 A3025 RMK A01 T01280105  RH  087%=      5-min Rain = 0
KRRS 101220Z 23006KT 13/11 A3025 RMK A01 T01280105  RH  087%=      5-min Rain = 0
KRRS 101225Z 23006KT 13/10 A3025 RMK A01 T01280104  RH  087%=      5-min Rain = 0
KRRS 101230Z 23005KT 13/11 A3025 RMK A01 T01280105  RH  087%=      5-min Rain = 0
KRRS 101235Z 23005KT 13/11 A3026 RMK A01 T01290105  RH  087%=      5-min Rain = 0
KRRS 101240Z 22005KT 13/11 A3026 RMK A01 T01300106  RH  087%=      5-min Rain = 0
KRRS 101245Z 22005KT 13/11 A3026 RMK A01 T01320106  RH  086%=      5-min Rain = 0
KRRS 101250Z 22004KT 13/11 A3026 RMK A01 T01330107  RH  086%=      5-min Rain = 0
KRRS 101255Z 22004KT 14/11 A3026 RMK A01 T01350108  RH  085%=      5-min Rain = 0
KRRS 101300Z 22004KT 14/11 A3026 RMK A01 T01370109  RH  085%=      5-min Rain = 0
KRRS 101305Z 21004KT 14/11 A3026 RMK A01 T01390110  RH  085%=      5-min Rain = 0
KRRS 101310Z 21004KT 14/11 A3026 RMK A01 T01410112  RH  084%=      5-min Rain = 0
KRRS 101315Z 21004KT 14/11 A3026 RMK A01 T01440114  RH  084%=      5-min Rain = 0
KRRS 101320Z 21004KT 15/12 A3027 RMK A01 T01480117  RH  083%=      5-min Rain = 0
KRRS 101325Z 22003KT 15/12 A3027 RMK A01 T01530119  RH  082%=      5-min Rain = 0
KRRS 101330Z 21003KT 16/12 A3027 RMK A01 T01580121  RH  080%=      5-min Rain = 0
KRRS 101335Z 22003KT 16/12 A3027 RMK A01 T01620122  RH  079%=      5-min Rain = 0
KRRS 101340Z 21003KT 17/12 A3027 RMK A01 T01650121  RH  077%=      5-min Rain = 0
KRRS 101345Z 20003KT 17/12 A3027 RMK A01 T01670121  RH  075%=      5-min Rain = 0
KRRS 101350Z 20003KT 17/12 A3027 RMK A01 T01710122  RH  074%=      5-min Rain = 0
KRRS 101355Z 20004KT 17/12 A3027 RMK A01 T01740123  RH  074%=      5-min Rain = 0
KRRS 101400Z 19005KT 18/12 A3027 RMK A01 T01760124  RH  073%=      5-min Rain = 0
KRRS 101405Z 18005KT 18/12 A3026 RMK A01 T01800124  RH  071%=      5-min Rain = 0
KRRS 101410Z 19005KT 18/12 A3026 RMK A01 T01820124  RH  070%=      5-min Rain = 0
KRRS 101415Z 19006KT 18/12 A3027 RMK A01 T01840123  RH  069%=      5-min Rain = 0
KRRS 101420Z 18006KT 19/13 A3027 RMK A01 T01860125  RH  069%=      5-min Rain = 0
KRRS 101425Z 19007KT 19/13 A3027 RMK A01 T01880126  RH  068%=      5-min Rain = 0
KRRS 101430Z 19008KT 19/13 A3027 RMK A01 T01910125  RH  067%=      5-min Rain = 0
KRRS 101435Z 18006KT 19/13 A3027 RMK A01 T01940127  RH  066%=      5-min Rain = 0
KRRS 101440Z 17006KT 20/13 A3027 RMK A01 T01970127  RH  065%=      5-min Rain = 0
KRRS 101445Z 18006KT 20/13 A3027 RMK A01 T02020130  RH  065%=      5-min Rain = 0
KRRS 101450Z 16005KT 21/13 A3028 RMK A01 T02060130  RH  063%=      5-min Rain = 0
KRRS 101455Z 16006KT 21/13 A3028 RMK A01 T02060129  RH  062%=      5-min Rain = 0
KRRS 101500Z 17006KT 21/13 A3028 RMK A01 T02080131  RH  062%=      5-min Rain = 0
KRRS 101505Z 16007KT 21/13 A3028 RMK A01 T02120131  RH  061%=      5-min Rain = 0
KRRS 101510Z 16005KT 21/13 A3028 RMK A01 T02130132  RH  061%=      5-min Rain = 0
KRRS 101515Z 16005KT 22/14 A3028 RMK A01 T02180135  RH  060%=      5-min Rain = 0
KRRS 101520Z 17008KT 22/13 A3028 RMK A01 T02210131  RH  058%=      5-min Rain = 0
KRRS 101525Z 17008KT 22/13 A3028 RMK A01 T02220131  RH  057%=      5-min Rain = 0
KRRS 101530Z 17008KT 22/13 A3028 RMK A01 T02230129  RH  056%=      5-min Rain = 0
KRRS 101535Z 16008KT 22/13 A3028 RMK A01 T02240129  RH  056%=      5-min Rain = 0
KRRS 101540Z 15008KT 23/13 A3028 RMK A01 T02270130  RH  055%=      5-min Rain = 0
KRRS 101545Z 16007KT 23/13 A3028 RMK A01 T02310130  RH  054%=      5-min Rain = 0
KRRS 101550Z 18007KT 23/13 A3028 RMK A01 T02330129  RH  053%=      5-min Rain = 0
KRRS 101555Z 15009G14KT 24/13 A3028 RMK A01 T02350128  RH  052%=      5-min Rain = 0
KRRS 101600Z 16007KT 23/13 A3028 RMK A01 T02340127  RH  052%=      5-min Rain = 0
KRRS 101605Z 16007KT 24/13 A3028 RMK A01 T02350128  RH  052%=      5-min Rain = 0
KRRS 101610Z 16008KT 24/13 A3028 RMK A01 T02370126  RH  051%=      5-min Rain = 0
KRRS 101615Z 15007KT 24/13 A3028 RMK A01 T02370127  RH  051%=      5-min Rain = 0
KRRS 101620Z 17006KT 24/13 A3027 RMK A01 T02410128  RH  050%=      5-min Rain = 0
KRRS 101625Z 15006KT 24/13 A3027 RMK A01 T02410126  RH  049%=      5-min Rain = 0
KRRS 101630Z 15006KT 24/13 A3027 RMK A01 T02400125  RH  049%=      5-min Rain = 0
KRRS 101635Z 13005KT 24/13 A3027 RMK A01 T02390125  RH  050%=      5-min Rain = 0
KRRS 101640Z 15007G12KT 24/13 A3027 RMK A01 T02420126  RH  049%=      5-min Rain = 0
KRRS 101645Z 16008KT 24/12 A3027 RMK A01 T02440124  RH  048%=      5-min Rain = 0
KRRS 101650Z 17003KT 24/12 A3027 RMK A01 T02420123  RH  048%=      5-min Rain = 0
KRRS 101655Z 13007KT 25/13 A3027 RMK A01 T02470127  RH  048%=      5-min Rain = 0
KRRS 101700Z 13006KT 25/13 A3027 RMK A01 T02470126  RH  048%=      5-min Rain = 0
KRRS 101705Z 15005KT 25/12 A3026 RMK A01 T02490124  RH  046%=      5-min Rain = 0
KRRS 101710Z 16004KT 25/12 A3026 RMK A01 T02480124  RH  047%=      5-min Rain = 0
KRRS 101715Z 16005KT 25/13 A3026 RMK A01 T02490125  RH  047%=      5-min Rain = 0
KRRS 101720Z 19006KT 25/12 A3026 RMK A01 T02500123  RH  046%=      5-min Rain = 0
KRRS 101725Z 14007G12KT 25/13 A3026 RMK A01 T02510125  RH  046%=      5-min Rain = 0
KRRS 101730Z 15005KT 25/12 A3026 RMK A01 T02500122  RH  046%=      5-min Rain = 0
KRRS 101735Z 14006KT 25/13 A3026 RMK A01 T02520125  RH  046%=      5-min Rain = 0
KRRS 101740Z 11005KT 25/13 A3025 RMK A01 T02530125  RH  046%=      5-min Rain = 0
KRRS 101745Z 18003KT 25/12 A3025 RMK A01 T02540123  RH  045%=      5-min Rain = 0
KRRS 101750Z 17006KT 26/12 A3025 RMK A01 T02550122  RH  044%=      5-min Rain = 0
KRRS 101755Z 17006G11KT 26/12 A3025 RMK A01 T02560120  RH  044%=      5-min Rain = 0
KRRS 101800Z 17005KT 26/12 A3025 RMK A01 T02600124  RH  044%=      5-min Rain = 0
KRRS 101805Z 16006KT 26/12 A3025 RMK A01 T02620122  RH  042%=      5-min Rain = 0
KRRS 101810Z 17007KT 26/12 A3025 RMK A01 T02630124  RH  043%=      5-min Rain = 0
KRRS 101815Z 18003G9KT 26/12 A3024 RMK A01 T02590121  RH  043%=      5-min Rain = 0
KRRS 101820Z 21005KT 26/12 A3024 RMK A01 T02590121  RH  043%=      5-min Rain = 0
KRRS 101825Z 15006G13KT 26/12 A3024 RMK A01 T02600122  RH  043%=      5-min Rain = 0
KRRS 101830Z 11006KT 26/12 A3024 RMK A01 T02610123  RH  043%=      5-min Rain = 0
KRRS 101835Z 10005KT 26/12 A3024 RMK A01 T02610120  RH  042%=      5-min Rain = 0
KRRS 101840Z 14008KT 26/12 A3024 RMK A01 T02640122  RH  042%=      5-min Rain = 0
KRRS 101845Z 16007KT 27/12 A3024 RMK A01 T02680120  RH  041%=      5-min Rain = 0
KRRS 101850Z 17004KT 27/12 A3024 RMK A01 T02700122  RH  040%=      5-min Rain = 0
KRRS 101855Z 10003KT 27/11 A3024 RMK A01 T02660114  RH  039%=      5-min Rain = 0
KRRS 101900Z 12006KT 27/12 A3023 RMK A01 T02660116  RH  040%=      5-min Rain = 0
KRRS 101905Z 15006G12KT 27/12 A3023 RMK A01 T02690116  RH  039%=      5-min Rain = 0
KRRS 101910Z 18007KT 27/11 A3023 RMK A01 T02710113  RH  038%=      5-min Rain = 0
KRRS 101915Z 18002KT 27/11 A3023 RMK A01 T02720110  RH  037%=      5-min Rain = 0
KRRS 101920Z 15006G11KT 28/11 A3023 RMK A01 T02750109  RH  036%=      5-min Rain = 0
KRRS 101925Z 16005KT 27/10 A3023 RMK A01 T02710102  RH  035%=      5-min Rain = 0
KRRS 101930Z 15003G8KT 27/10 A3022 RMK A01 T02740100  RH  034%=      5-min Rain = 0
KRRS 101935Z 21003G9KT 28/11 A3022 RMK A01 T02760106  RH  035%=      5-min Rain = 0
KRRS 101940Z 16006KT 28/11 A3022 RMK A01 T02750111  RH  037%=      5-min Rain = 0
KRRS 101945Z 15004KT 28/11 A3022 RMK A01 T02760109  RH  036%=      5-min Rain = 0
KRRS 101950Z 18004G10KT 28/11 A3022 RMK A01 T02780111  RH  036%=      5-min Rain = 0
KRRS 101955Z 19007KT 28/11 A3021 RMK A01 T02810110  RH  035%=      5-min Rain = 0
KRRS 102000Z 18004KT 28/11 A3021 RMK A01 T02840111  RH  035%=      5-min Rain = 0
KRRS 102005Z 14005KT 28/11 A3021 RMK A01 T02820106  RH  034%=      5-min Rain = 0
KRRS 102010Z 16004KT 28/11 A3021 RMK A01 T02820105  RH  034%=      5-min Rain = 0
KRRS 102015Z 19004KT 28/11 A3021 RMK A01 T02830106  RH  034%=      5-min Rain = 0
KRRS 102020Z 16007G13KT 29/11 A302 RMK A01 T02860110  RH  034%=      5-min Rain = 0
KRRS 102025Z 15006KT 28/11 A302 RMK A01 T02840106  RH  034%=      5-min Rain = 0
KRRS 102030Z 08004KT 28/11 A302 RMK A01 T02790106  RH  035%=      5-min Rain = 0
KRRS 102035Z 08002KT 28/11 A302 RMK A01 T02790107  RH  035%=      5-min Rain = 0
KRRS 102040Z 09001KT 28/11 A3019 RMK A01 T02830106  RH  034%=      5-min Rain = 0
KRRS 102045Z 17003KT 29/11 A3019 RMK A01 T02860106  RH  033%=      5-min Rain = 0
KRRS 102050Z 11005KT 29/11 A3019 RMK A01 T02860109  RH  034%=      5-min Rain = 0
KRRS 102055Z 15004KT 29/11 A3019 RMK A01 T02850108  RH  034%=      5-min Rain = 0
KRRS 102100Z 09005KT 29/12 A3018 RMK A01 T02880116  RH  035%=      5-min Rain = 0
KRRS 102105Z 15007G13KT 29/11 A3018 RMK A01 T02900109  RH  033%=      5-min Rain = 0
KRRS 102110Z 17006KT 29/11 A3018 RMK A01 T02890107  RH  033%=      5-min Rain = 0
KRRS 102115Z 13005KT 29/11 A3018 RMK A01 T02880105  RH  033%=      5-min Rain = 0
KRRS 102120Z 19005G10KT 29/11 A3018 RMK A01 T02860106  RH  033%=      5-min Rain = 0
KRRS 102125Z 18006KT 29/11 A3018 RMK A01 T02880109  RH  033%=      5-min Rain = 0
KRRS 102130Z 15007KT 29/11 A3017 RMK A01 T02900111  RH  034%=      5-min Rain = 0
KRRS 102135Z 11007KT 29/11 A3017 RMK A01 T02880112  RH  034%=      5-min Rain = 0
KRRS 102140Z 10004KT 29/11 A3017 RMK A01 T02850110  RH  034%=      5-min Rain = 0
KRRS 102145Z 11002KT 29/11 A3018 RMK A01 T02850110  RH  034%=      5-min Rain = 0
KRRS 102150Z 14004KT 29/11 A3017 RMK A01 T02860107  RH  033%=      5-min Rain = 0
KRRS 102155Z 11005KT 29/11 A3018 RMK A01 T02880110  RH  034%=      5-min Rain = 0
KRRS 102200Z 12003G10KT 29/11 A3017 RMK A01 T02880110  RH  034%=      5-min Rain = 0
KRRS 102205Z 12007KT 29/11 A3017 RMK A01 T02890107  RH  033%=      5-min Rain = 0
KRRS 102210Z 11006KT 29/11 A3017 RMK A01 T02860108  RH  034%=      5-min Rain = 0
KRRS 102215Z 10007KT 29/11 A3017 RMK A01 T02860107  RH  033%=      5-min Rain = 0
KRRS 102220Z 09006KT 28/11 A3017 RMK A01 T02840106  RH  034%=      5-min Rain = 0
KRRS 102225Z 10007KT 28/11 A3017 RMK A01 T02840106  RH  034%=      5-min Rain = 0
KRRS 102230Z 10009KT 29/11 A3017 RMK A01 T02850108  RH  034%=      5-min Rain = 0
KRRS 102235Z 09008KT 28/11 A3017 RMK A01 T02840107  RH  034%=      5-min Rain = 0
KRRS 102240Z 09004KT 28/11 A3017 RMK A01 T02830105  RH  033%=      5-min Rain = 0
KRRS 102245Z 09007KT 28/11 A3017 RMK A01 T02840107  RH  034%=      5-min Rain = 0
KRRS 102250Z 13008KT 28/11 A3017 RMK A01 T02840106  RH  034%=      5-min Rain = 0
KRRS 102255Z 11006KT 28/11 A3017 RMK A01 T02840106  RH  034%=      5-min Rain = 0
KRRS 102300Z 12003KT 28/10 A3017 RMK A01 T02840104  RH  033%=      5-min Rain = 0
KRRS 102305Z 12005KT 28/11 A3017 RMK A01 T02840105  RH  033%=      5-min Rain = 0
KRRS 102310Z 10007KT 28/10 A3017 RMK A01 T02820104  RH  034%=      5-min Rain = 0
KRRS 102315Z 10008KT 28/11 A3017 RMK A01 T02800105  RH  034%=      5-min Rain = 0
KRRS 102320Z 12008KT 28/10 A3018 RMK A01 T02780102  RH  034%=      5-min Rain = 0
KRRS 102325Z 11005KT 28/10 A3018 RMK A01 T02780102  RH  034%=      5-min Rain = 0
KRRS 102330Z 11007KT 28/10 A3018 RMK A01 T02770103  RH  034%=      5-min Rain = 0
KRRS 102335Z 10008KT 28/10 A3018 RMK A01 T02760102  RH  034%=      5-min Rain = 0
KRRS 102340Z 09008KT 28/10 A3018 RMK A01 T02750101  RH  034%=      5-min Rain = 0
KRRS 102345Z 12005KT 27/11 A3018 RMK A01 T02740106  RH  036%=      5-min Rain = 0
KRRS 102350Z 10007KT 27/10 A3018 RMK A01 T02730104  RH  035%=      5-min Rain = 0
KRRS 102355Z 10007KT 27/11 A3018 RMK A01 T02710106  RH  036%=      5-min Rain = 0
KRRS 110000Z 10006KT 27/11 A3017 RMK A01 T02690107  RH  037%=      5-min Rain = 0
KRRS 110005Z 10005KT 27/11 A3017 RMK A01 T02680107  RH  037%=      5-min Rain = 0
KRRS 110010Z 11006KT 27/11 A3017 RMK A01 T02650108  RH  038%=      5-min Rain = 0
KRRS 110015Z 12006KT 26/11 A3017 RMK A01 T02640108  RH  038%=      5-min Rain = 0
KRRS 110020Z 12006KT 26/11 A3017 RMK A01 T02620111  RH  040%=      5-min Rain = 0
KRRS 110025Z 12006KT 26/11 A3017 RMK A01 T02580110  RH  040%=      5-min Rain = 0
KRRS 110030Z 12006KT 26/11 A3017 RMK A01 T02560110  RH  040%=      5-min Rain = 0
KRRS 110035Z 11006KT 25/11 A3017 RMK A01 T02520111  RH  042%=      5-min Rain = 0
KRRS 110040Z 11006KT 25/11 A3018 RMK A01 T02490110  RH  042%=      5-min Rain = 0
KRRS 110045Z 11006KT 25/11 A3018 RMK A01 T02460110  RH  043%=      5-min Rain = 0
KRRS 110050Z 11006KT 24/11 A3018 RMK A01 T02420110  RH  044%=      5-min Rain = 0
KRRS 110055Z 10005KT 24/11 A3018 RMK A01 T02390110  RH  045%=      5-min Rain = 0
KRRS 110100Z 08004KT 23/11 A3018 RMK A01 T02320110  RH  047%=      5-min Rain = 0
KRRS 110105Z 09005KT 23/11 A3018 RMK A01 T02300109  RH  047%=      5-min Rain = 0
KRRS 110110Z 09005KT 23/11 A3018 RMK A01 T02270107  RH  048%=      5-min Rain = 0
KRRS 110115Z 09006KT 22/11 A3018 RMK A01 T02240105  RH  048%=      5-min Rain = 0
KRRS 110120Z 09005KT 22/10 A3017 RMK A01 T02220104  RH  048%=      5-min Rain = 0
KRRS 110125Z 09005KT 22/10 A3018 RMK A01 T02200103  RH  048%=      5-min Rain = 0
KRRS 110130Z 10005KT 22/10 A3018 RMK A01 T02180103  RH  049%=      5-min Rain = 0
KRRS 110135Z 10005KT 22/10 A3018 RMK A01 T02170103  RH  049%=      5-min Rain = 0
KRRS 110140Z 10004KT 22/10 A3018 RMK A01 T02160103  RH  049%=      5-min Rain = 0
KRRS 110145Z 10005KT 22/10 A3018 RMK A01 T02150104  RH  050%=      5-min Rain = 0
KRRS 110150Z 10005KT 21/11 A3018 RMK A01 T02130105  RH  051%=      5-min Rain = 0
KRRS 110155Z 10005KT 21/11 A3018 RMK A01 T02100105  RH  052%=      5-min Rain = 0
KRRS 110200Z 11005KT 21/11 A3018 RMK A01 T02070105  RH  053%=      5-min Rain = 0
KRRS 110205Z 11006KT 21/11 A3018 RMK A01 T02050105  RH  053%=      5-min Rain = 0
KRRS 110210Z 11007KT 21/10 A3019 RMK A01 T02060104  RH  053%=      5-min Rain = 0
KRRS 110215Z 11007KT 21/10 A3019 RMK A01 T02080104  RH  052%=      5-min Rain = 0
KRRS 110220Z 11007KT 21/10 A3019 RMK A01 T02100104  RH  052%=      5-min Rain = 0
KRRS 110225Z 11007KT 21/10 A3019 RMK A01 T02090104  RH  052%=      5-min Rain = 0
KRRS 110230Z 11007KT 21/10 A3019 RMK A01 T02080104  RH  052%=      5-min Rain = 0
KRRS 110235Z 11007KT 21/10 A302 RMK A01 T02080104  RH  052%=      5-min Rain = 0
KRRS 110240Z 11008KT 21/10 A302 RMK A01 T02090103  RH  052%=      5-min Rain = 0
KRRS 110245Z 11007KT 21/10 A302 RMK A01 T02090103  RH  051%=      5-min Rain = 0
KRRS 110250Z 12007KT 21/10 A302 RMK A01 T02080103  RH  052%=      5-min Rain = 0
KRRS 110255Z 12007KT 21/10 A302 RMK A01 T02080102  RH  052%=      5-min Rain = 0
KRRS 110300Z 12007KT 21/10 A3021 RMK A01 T02070102  RH  052%=      5-min Rain = 0
KRRS 110305Z 12006KT 21/10 A3021 RMK A01 T02060101  RH  052%=      5-min Rain = 0
KRRS 110310Z 12007KT 21/10 A3021 RMK A01 T02050101  RH  052%=      5-min Rain = 0
KRRS 110315Z 12006KT 20/10 A3021 RMK A01 T02040100  RH  052%=      5-min Rain = 0
KRRS 110320Z 12006KT 20/10 A3021 RMK A01 T02030100  RH  053%=      5-min Rain = 0
KRRS 110325Z 13006KT 20/10 A3021 RMK A01 T02000101  RH  053%=      5-min Rain = 0
KRRS 110330Z 13006KT 20/10 A3021 RMK A01 T01980101  RH  054%=      5-min Rain = 0
KRRS 110335Z 13005KT 20/10 A3021 RMK A01 T01960100  RH  055%=      5-min Rain = 0
KRRS 110340Z 13005KT 20/10 A3021 RMK A01 T01950100  RH  055%=      5-min Rain = 0
KRRS 110345Z 13005KT 19/10 A3021 RMK A01 T01930100  RH  056%=      5-min Rain = 0
KRRS 110350Z 14005KT 19/10 A3022 RMK A01 T01920100  RH  056%=      5-min Rain = 0
KRRS 110355Z 14005KT 19/10 A3022 RMK A01 T01900101  RH  057%=      5-min Rain = 0
KRRS 110400Z 13006KT 19/10 A3022 RMK A01 T01890101  RH  057%=      5-min Rain = 0
KRRS 110405Z 13006KT 19/10 A3022 RMK A01 T01900101  RH  057%=      5-min Rain = 0
KRRS 110410Z 13006KT 19/10 A3022 RMK A01 T01900100  RH  057%=      5-min Rain = 0
KRRS 110415Z 13005KT 19/10 A3022 RMK A01 T01890100  RH  057%=      5-min Rain = 0
KRRS 110420Z 14005KT 19/10 A3022 RMK A01 T01880100  RH  057%=      5-min Rain = 0
KRRS 110425Z 14005KT 19/10 A3022 RMK A01 T01870100  RH  058%=      5-min Rain = 0
KRRS 110430Z 14005KT 19/10 A3022 RMK A01 T01870100  RH  058%=      5-min Rain = 0
KRRS 110435Z 15005KT 19/10 A3022 RMK A01 T01870099  RH  058%=      5-min Rain = 0
KRRS 110440Z 15005KT 19/10 A3022 RMK A01 T01870099  RH  057%=      5-min Rain = 0
KRRS 110445Z 16004KT 19/10 A3022 RMK A01 T01860099  RH  058%=      5-min Rain = 0
KRRS 110450Z 16004KT 18/10 A3022 RMK A01 T01840099  RH  059%=      5-min Rain = 0
KRRS 110455Z 16005KT 18/10 A3022 RMK A01 T01830100  RH  059%=      5-min Rain = 0

Page generated in 0.0092 seconds.